SBMQ/MCP METAR and TAF weather

Enter ICAO airport designator
Station Type Date Time Source
SBMQ METAR 2019/07/17 18:00 UTC NOAA

SBMQ 171800Z 07007KT 9999 SCT017 FEW023TCU 31/25 Q1013


Station Type Date Time Source
SBMQ Decoded METAR 2019/07/17 18:00 UTC NOAA

Macapa, Brazil (SBMQ) 00-02N 050-03W
Jul 17, 2019 - 02:00 PM EDT / 2019.07.17 1800 UTC
Wind: from the ENE (070 degrees) at 8 MPH (7 KT):0
Visibility: greater than 7 mile(s):0
Sky conditions: partly cloudy
Weather: Towering cumulus clouds observed
Temperature: 87 F (31 C)
Heat index: 97.5 F (36.4 C):1
Dew Point: 77 F (25 C)
Relative Humidity: 70%
Pressure (altimeter): 29.91 in. Hg (1013 hPa)
ob: SBMQ 171800Z 07007KT 9999 SCT017 FEW023TCU 31/25 Q1013
cycle: 18

Station Type Date Time Source
SBMQ TAF 2019/07/17 18:33 UTC NOAA

TAF SBMQ 171500Z 1718/1818 06010KT 9999 SCT023 FEW025TCU TN23/1808Z TX34/1817Z
TEMPO 1718/1720 4500 TSRA BKN015 FEW030CB
BECMG 1720/1722 08005KT 7000 SCT013
BECMG 1800/1802 02005KT SCT015
BECMG 1806/1808 35005KT
BECMG 1810/1812 06010KT 9999 SCT015 FEW030TCU
RMK PGU

Example: see airport list